createdAt,value
2022-10-18T00:01:05.083Z,1
2022-10-18T00:03:08.821Z,1
2022-10-18T00:05:05.702Z,1
2022-10-18T00:07:04.996Z,1
2022-10-18T00:09:05.878Z,1
2022-10-18T00:11:08.578Z,1
2022-10-18T00:13:05.011Z,1
2022-10-18T00:15:05.027Z,1
2022-10-18T00:17:12.770Z,1
2022-10-18T00:19:05.843Z,1
2022-10-18T00:21:06.143Z,1
2022-10-18T00:23:09.810Z,1
2022-10-18T00:25:05.775Z,1
2022-10-18T00:29:05.765Z,1
2022-10-18T00:31:05.154Z,1
2022-10-18T00:33:09.583Z,1
2022-10-18T00:35:06.123Z,1
2022-10-18T00:37:05.165Z,1
2022-10-18T00:39:05.156Z,1
2022-10-18T00:41:04.981Z,1
2022-10-18T00:43:05.007Z,1
2022-10-18T00:45:05.043Z,1
2022-10-18T00:47:12.860Z,1
2022-10-18T00:49:05.184Z,1
2022-10-18T00:51:05.044Z,1
2022-10-18T00:53:05.769Z,1
2022-10-18T00:55:05.709Z,1
2022-10-18T00:57:05.247Z,1
2022-10-18T00:59:04.994Z,1
2022-10-18T01:01:05.322Z,1
2022-10-18T01:03:05.840Z,1
2022-10-18T01:05:09.059Z,1
2022-10-18T01:07:08.272Z,1
2022-10-18T01:09:05.720Z,1
2022-10-18T01:11:05.892Z,1
2022-10-18T01:13:05.072Z,1
2022-10-18T01:15:04.965Z,1
2022-10-18T01:17:05.071Z,1
2022-10-18T01:19:05.312Z,1
2022-10-18T01:21:05.794Z,1
2022-10-18T01:23:12.842Z,1
2022-10-18T01:25:05.207Z,1
2022-10-18T01:27:08.814Z,1
2022-10-18T01:29:05.366Z,1
2022-10-18T01:31:05.962Z,1
2022-10-18T01:33:08.731Z,1
2022-10-18T01:35:05.584Z,1
2022-10-18T01:37:05.842Z,1
2022-10-18T01:39:05.247Z,1
2022-10-18T01:41:05.811Z,1
2022-10-18T01:43:08.874Z,1
2022-10-18T01:45:12.793Z,1
2022-10-18T01:47:05.057Z,1
2022-10-18T01:49:08.963Z,1
2022-10-18T01:51:08.884Z,1
2022-10-18T01:53:05.007Z,1
2022-10-18T01:55:12.686Z,1
2022-10-18T01:57:05.242Z,1
2022-10-18T01:59:05.778Z,1
2022-10-18T02:01:05.829Z,1
2022-10-18T02:03:05.765Z,1
2022-10-18T02:05:05.069Z,1
2022-10-18T02:07:05.017Z,1
2022-10-18T02:09:09.099Z,1
2022-10-18T02:11:05.079Z,1
2022-10-18T02:13:05.594Z,1
2022-10-18T02:15:09.633Z,1
2022-10-18T02:17:05.769Z,1
2022-10-18T02:19:09.444Z,1
2022-10-18T02:21:05.081Z,1
2022-10-18T02:23:05.039Z,1
2022-10-18T02:25:12.152Z,1
2022-10-18T02:27:05.818Z,1
2022-10-18T02:29:08.859Z,1
2022-10-18T02:31:06.010Z,1
2022-10-18T02:33:06.134Z,1
2022-10-18T02:35:09.749Z,1
2022-10-18T02:37:05.781Z,1
2022-10-18T02:39:09.134Z,1
2022-10-18T02:41:09.313Z,1
2022-10-18T02:43:05.061Z,1
2022-10-18T02:45:05.895Z,1
2022-10-18T02:47:09.699Z,1
2022-10-18T02:49:05.876Z,1
2022-10-18T02:51:09.259Z,1
2022-10-18T02:53:05.956Z,1
2022-10-18T02:55:10.740Z,1
2022-10-18T02:57:05.626Z,1
2022-10-18T02:59:05.830Z,1
2022-10-18T03:01:05.037Z,1
2022-10-18T03:03:12.361Z,1
2022-10-18T03:05:09.632Z,1
2022-10-18T03:07:06.006Z,1
2022-10-18T03:09:05.269Z,1
2022-10-18T03:11:05.459Z,1
2022-10-18T03:13:14.514Z,1
2022-10-18T03:15:05.080Z,1
2022-10-18T03:17:05.232Z,1
2022-10-18T03:19:09.208Z,1
2022-10-18T03:21:05.626Z,1
2022-10-18T03:23:05.887Z,1
2022-10-18T03:25:05.818Z,1
2022-10-18T03:27:06.015Z,1
2022-10-18T03:29:05.456Z,1
2022-10-18T03:31:08.799Z,1
2022-10-18T03:33:05.178Z,1
2022-10-18T03:35:05.751Z,1
2022-10-18T03:37:05.679Z,1
2022-10-18T03:39:09.530Z,1
2022-10-18T03:41:08.738Z,1
2022-10-18T03:43:09.456Z,1
2022-10-18T03:45:05.209Z,1
2022-10-18T03:47:04.961Z,1
2022-10-18T03:51:05.806Z,1
2022-10-18T03:53:06.103Z,1
2022-10-18T03:55:05.072Z,1
2022-10-18T03:57:05.755Z,1
2022-10-18T03:59:05.833Z,1
2022-10-18T04:01:05.724Z,1
2022-10-18T04:03:05.566Z,1
2022-10-18T04:05:05.032Z,1
2022-10-18T04:07:05.916Z,1
2022-10-18T04:09:07.817Z,1
2022-10-18T04:11:09.213Z,1
2022-10-18T04:13:05.041Z,1
2022-10-18T04:15:10.552Z,1
2022-10-18T04:17:05.444Z,1
2022-10-18T04:19:11.818Z,1
2022-10-18T04:21:05.807Z,1
2022-10-18T04:23:05.845Z,1
2022-10-18T04:25:06.041Z,1
2022-10-18T04:27:05.614Z,1
2022-10-18T04:29:09.295Z,1
2022-10-18T04:31:12.797Z,1
2022-10-18T04:33:05.054Z,1
2022-10-18T04:35:11.489Z,1
2022-10-18T04:39:08.394Z,1
2022-10-18T04:41:12.799Z,1
2022-10-18T04:43:05.239Z,1
2022-10-18T04:45:07.403Z,1
2022-10-18T04:47:06.199Z,1
2022-10-18T04:49:08.593Z,1
2022-10-18T04:51:05.272Z,0
2022-10-18T04:53:12.653Z,0
2022-10-18T04:55:05.037Z,0
2022-10-18T04:57:06.009Z,0
2022-10-18T04:59:05.262Z,0
2022-10-18T05:01:07.674Z,0.1
2022-10-18T05:03:05.223Z,0.1
2022-10-18T05:07:12.802Z,0.2
2022-10-18T05:09:05.254Z,0.3
2022-10-18T05:11:05.928Z,0.4
2022-10-18T05:13:05.820Z,0.7
2022-10-18T05:15:07.544Z,1.1
2022-10-18T05:17:09.514Z,1.6
2022-10-18T05:19:05.737Z,2.5
2022-10-18T05:23:05.536Z,5.2
2022-10-18T05:25:05.098Z,6.7
2022-10-18T05:27:06.850Z,8.6
2022-10-18T05:29:05.139Z,11
2022-10-18T05:31:05.047Z,14.9
2022-10-18T05:33:05.182Z,19.1
2022-10-18T05:35:05.139Z,24.5
2022-10-18T05:37:09.076Z,31.5
2022-10-18T05:39:05.831Z,40.4
2022-10-18T05:41:05.048Z,49.4
2022-10-18T05:43:12.280Z,60.3
2022-10-18T05:45:05.263Z,70.1
2022-10-18T05:47:13.313Z,81.5
2022-10-18T05:49:05.056Z,85.6
2022-10-18T05:51:05.810Z,90
2022-10-18T05:53:24.653Z,94.6
2022-10-18T05:55:09.604Z,99.5
2022-10-18T05:57:09.103Z,109.9
2022-10-18T05:59:05.608Z,121.5
2022-10-18T06:01:08.682Z,127.7
2022-10-18T06:03:05.860Z,141.2
2022-10-18T06:05:08.743Z,164
2022-10-18T06:07:05.230Z,190.6
2022-10-18T06:09:05.655Z,244.7
2022-10-18T06:11:08.804Z,298.9
2022-10-18T06:13:05.668Z,347.2
2022-10-18T06:15:05.450Z,403.4
2022-10-18T06:17:05.939Z,492.7
2022-10-18T06:19:05.674Z,572.5
2022-10-18T06:21:05.389Z,632.7
2022-10-18T06:23:05.040Z,735.1
2022-10-18T06:25:12.554Z,812.4
2022-10-18T06:27:09.665Z,897.8
2022-10-18T06:29:05.949Z,1096.6
2022-10-18T06:31:05.218Z,1339.4
2022-10-18T06:33:08.670Z,1480.3
2022-10-18T06:35:06.056Z,1719.9
2022-10-18T06:37:05.800Z,1900.7
2022-10-18T06:39:05.847Z,2100.6
2022-10-18T06:41:10.969Z,2100.6
2022-10-18T06:43:19.875Z,2208.3
2022-10-18T06:45:08.928Z,2208.3
2022-10-18T06:47:05.083Z,2208.3
2022-10-18T06:49:09.181Z,1998.2
2022-10-18T06:51:05.838Z,1900.7
2022-10-18T06:53:07.234Z,1636
2022-10-18T06:55:08.446Z,1408.1
2022-10-18T06:57:08.689Z,1212
2022-10-18T06:59:05.663Z,1212
2022-10-18T07:01:05.083Z,1212
2022-10-18T07:03:05.042Z,1212
2022-10-18T07:05:05.054Z,1212
2022-10-18T07:07:05.099Z,1212
2022-10-18T07:09:05.888Z,1152.9
2022-10-18T07:11:07.384Z,1043.1
2022-10-18T07:15:09.041Z,943.9
2022-10-18T07:17:05.106Z,897.8
2022-10-18T07:19:07.848Z,897.8
2022-10-18T07:21:06.007Z,897.8
2022-10-18T07:23:08.631Z,992.3
2022-10-18T07:25:06.019Z,1043.1
2022-10-18T07:27:05.067Z,1096.6
2022-10-18T07:29:06.218Z,1152.9
2022-10-18T07:31:09.124Z,1152.9
2022-10-18T07:33:05.809Z,1152.9
2022-10-18T07:35:09.559Z,1152.9
2022-10-18T07:37:05.988Z,1212
2022-10-18T07:39:05.277Z,1274.1
2022-10-18T07:41:05.967Z,1274.1
2022-10-18T07:43:06.258Z,1339.4
2022-10-18T07:45:12.943Z,1408.1
2022-10-18T07:47:05.551Z,1480.3
2022-10-18T07:49:09.551Z,1636
2022-10-18T07:51:05.545Z,1719.9
2022-10-18T07:53:05.787Z,1808
2022-10-18T07:55:05.317Z,1900.7
2022-10-18T07:57:05.484Z,1998.2
2022-10-18T07:59:04.695Z,2321.6
2022-10-18T08:01:10.436Z,2565.7
2022-10-18T08:03:06.082Z,3133.8
2022-10-18T08:05:06.077Z,3294.5
2022-10-18T08:07:05.896Z,3294.5
2022-10-18T08:09:05.133Z,3294.5
2022-10-18T08:11:09.046Z,3463.4
2022-10-18T08:13:05.856Z,3641
2022-10-18T08:15:07.424Z,4023.9
2022-10-18T08:19:05.835Z,5166.8
2022-10-18T08:21:09.787Z,6310.7
2022-10-18T08:23:05.561Z,6002.9
2022-10-18T08:25:08.513Z,6634.2
2022-10-18T08:27:06.205Z,6310.7
2022-10-18T08:29:22.374Z,7332
2022-10-18T08:31:05.497Z,6310.7
2022-10-18T08:36:07.400Z,28282.5
2022-10-18T08:38:49.527Z,44355.9
2022-10-18T08:48:26.279Z,49020.8
2022-10-18T08:51:55.398Z,20952.2
2022-10-18T08:58:32.719Z,54176.4
2022-10-18T09:07:35.441Z,56954
2022-10-18T09:08:03.274Z,56954
2022-10-18T09:09:44.703Z,51534.2
2022-10-18T09:12:21.609Z,59874.1
2022-10-18T09:18:07.184Z,59874.1
2022-10-18T09:18:28.333Z,59874.1
2022-10-18T09:20:22.082Z,59874.1
2022-10-18T09:23:27.790Z,62944
2022-10-18T09:29:10.239Z,62944
2022-10-18T09:31:09.338Z,66171.2
2022-10-18T09:35:30.287Z,66171.2
2022-10-18T09:40:13.037Z,66171.2
2022-10-18T09:45:16.997Z,66171.2
2022-10-18T09:51:23.718Z,69563.8
2022-10-18T09:55:57.697Z,69563.8
2022-10-18T09:59:34.215Z,69563.8
2022-10-18T10:06:38.095Z,73130.4
2022-10-18T10:08:43.993Z,73130.4
2022-10-18T10:10:40.484Z,73130.4
2022-10-18T10:12:40.775Z,73130.4
2022-10-18T10:14:43.612Z,73130.4
2022-10-18T10:16:43.959Z,73130.4
2022-10-18T10:18:40.619Z,73130.4
2022-10-18T10:20:40.609Z,73130.4
2022-10-18T10:22:41.791Z,76879.9
2022-10-18T10:24:40.502Z,76879.9
2022-10-18T10:26:43.214Z,76879.9
2022-10-18T10:30:43.921Z,76879.9
2022-10-18T10:32:43.834Z,76879.9
2022-10-18T10:34:41.107Z,76879.9
2022-10-18T10:36:40.646Z,76879.9
2022-10-18T10:38:45.928Z,76879.9
2022-10-18T10:40:40.642Z,76879.9
2022-10-18T10:42:40.677Z,76879.9
2022-10-18T10:44:44.104Z,76879.9
2022-10-18T10:46:40.490Z,76879.9
2022-10-18T10:48:42.232Z,76879.9
2022-10-18T10:50:44.161Z,76879.9
2022-10-18T10:52:44.250Z,56954
2022-10-18T10:54:46.469Z,66171.2
2022-10-18T10:56:40.093Z,49020.8
2022-10-18T10:58:40.900Z,31257
2022-10-18T11:02:42.627Z,89321.7
2022-10-18T11:04:46.126Z,76879.9
2022-10-18T11:06:40.572Z,84965.5
2022-10-18T11:08:47.460Z,84965.5
2022-10-18T11:10:41.340Z,80821.6
2022-10-18T11:12:40.622Z,80821.6
2022-10-18T11:14:40.604Z,80821.6
2022-10-18T11:16:44.334Z,80821.6
2022-10-18T11:18:40.148Z,80821.6
2022-10-18T11:20:40.201Z,76879.9
2022-10-18T11:22:40.728Z,80821.6
2022-10-18T11:24:47.380Z,80821.6
2022-10-18T11:26:42.024Z,80821.6
2022-10-18T11:32:39.262Z,80821.6
2022-10-18T11:34:43.872Z,29732.6
2022-10-18T11:36:50.507Z,51534.2
2022-10-18T11:38:40.864Z,28282.5
2022-10-18T11:40:40.770Z,20952.2
2022-10-18T11:42:40.762Z,32859.6
2022-10-18T11:44:40.149Z,32859.6
2022-10-18T11:46:40.753Z,17154.2
2022-10-18T11:48:40.178Z,12708.2
2022-10-18T11:50:41.104Z,10404.6
2022-10-18T11:52:40.084Z,9414.4
2022-10-18T11:54:43.993Z,8955.3
2022-10-18T11:56:40.848Z,8518.5
2022-10-18T11:58:40.144Z,8518.5
2022-10-18T12:00:55.731Z,8518.5
2022-10-18T12:02:40.241Z,12088.4
2022-10-18T12:04:48.965Z,18033.7
2022-10-18T12:06:40.719Z,12088.4
2022-10-18T12:08:43.362Z,10938
2022-10-18T12:10:45.846Z,7707.9
2022-10-18T12:12:44.266Z,6634.2
2022-10-18T12:14:40.891Z,5710.1
2022-10-18T12:16:51.265Z,5710.1
2022-10-18T12:18:40.131Z,7332
2022-10-18T12:20:41.185Z,8955.3
2022-10-18T12:22:40.297Z,9897.1
2022-10-18T12:24:40.254Z,10404.6
2022-10-18T12:26:40.240Z,16317.6
2022-10-18T12:28:40.997Z,7707.9
2022-10-18T12:30:41.092Z,8518.5
2022-10-18T12:32:44.721Z,15521.8
2022-10-18T12:34:40.329Z,18958.4
2022-10-18T12:36:43.631Z,32859.6
2022-10-18T12:38:40.755Z,69563.8
2022-10-18T12:40:44.265Z,66171.2
2022-10-18T12:42:44.199Z,73130.4
2022-10-18T12:44:41.027Z,69563.8
2022-10-18T12:46:44.426Z,69563.8
2022-10-18T12:48:44.244Z,69563.8
2022-10-18T12:50:40.356Z,69563.8
2022-10-18T12:52:44.504Z,38177.4
2022-10-18T12:54:41.333Z,28282.5
2022-10-18T12:56:40.328Z,69563.8
2022-10-18T12:58:40.486Z,69563.8
2022-10-18T13:00:47.501Z,66171.2
2022-10-18T13:02:40.336Z,66171.2
2022-10-18T13:04:40.309Z,66171.2
2022-10-18T13:06:41.033Z,66171.2
2022-10-18T13:08:40.481Z,66171.2
2022-10-18T13:10:47.617Z,66171.2
2022-10-18T13:12:41.018Z,62944
2022-10-18T13:14:44.014Z,62944
2022-10-18T13:16:40.531Z,62944
2022-10-18T13:18:41.074Z,62944
2022-10-18T13:20:44.420Z,59874.1
2022-10-18T13:22:41.582Z,66171.2
2022-10-18T13:24:44.489Z,49020.8
2022-10-18T13:26:44.373Z,62944
2022-10-18T13:30:40.999Z,49020.8
2022-10-18T13:32:40.514Z,44355.9
2022-10-18T13:34:47.728Z,59874.1
2022-10-18T13:36:40.436Z,29732.6
2022-10-18T13:38:41.505Z,8103.1
2022-10-18T13:40:44.418Z,9897.1
2022-10-18T13:42:44.530Z,7332
2022-10-18T13:44:44.793Z,4447.1
2022-10-18T13:46:44.687Z,3294.5
2022-10-18T13:48:41.316Z,2697.3
2022-10-18T13:50:41.543Z,2565.7
2022-10-18T13:52:44.803Z,4023.9
2022-10-18T13:54:40.543Z,6310.7
2022-10-18T13:56:41.788Z,6974.4
2022-10-18T13:58:49.066Z,6634.2
2022-10-18T14:00:44.769Z,6634.2
2022-10-18T14:02:51.393Z,6974.4
2022-10-18T14:04:41.264Z,6974.4
2022-10-18T14:06:41.348Z,6634.2
2022-10-18T14:08:40.890Z,6634.2
2022-10-18T14:10:50.408Z,6634.2
2022-10-18T14:12:41.388Z,8103.1
2022-10-18T14:14:45.156Z,6974.4
2022-10-18T14:16:41.217Z,6310.7
2022-10-18T14:18:41.434Z,7332
2022-10-18T14:20:49.785Z,6634.2
2022-10-18T14:22:41.627Z,5710.1
2022-10-18T14:24:45.096Z,5166.8
2022-10-18T14:26:41.497Z,5166.8
2022-10-18T14:28:59.389Z,4230.2
2022-10-18T14:30:48.141Z,3641
2022-10-18T14:32:41.419Z,3463.4
2022-10-18T14:36:41.480Z,4447.1
2022-10-18T14:38:41.074Z,4675.1
2022-10-18T14:40:41.358Z,4447.1
2022-10-18T14:42:41.232Z,4914.8
2022-10-18T14:44:45.088Z,4447.1
2022-10-18T14:46:41.497Z,4914.8
2022-10-18T14:48:41.535Z,5166.8
2022-10-18T14:50:41.660Z,4447.1
2022-10-18T14:52:44.319Z,4023.9
2022-10-18T14:54:44.754Z,3641
2022-10-18T14:56:41.208Z,3463.4
2022-10-18T14:58:40.998Z,3133.8
2022-10-18T15:02:41.195Z,3133.8
2022-10-18T15:04:41.075Z,3133.8
2022-10-18T15:06:41.618Z,2565.7
2022-10-18T15:08:47.405Z,2565.7
2022-10-18T15:10:41.648Z,2440.6
2022-10-18T15:12:57.727Z,2440.6
2022-10-18T15:14:42.094Z,2100.6
2022-10-18T15:16:41.389Z,2100.6
2022-10-18T15:18:44.752Z,2208.3
2022-10-18T15:20:41.329Z,2208.3
2022-10-18T15:22:41.602Z,2208.3
2022-10-18T15:24:44.892Z,2100.6
2022-10-18T15:26:41.668Z,1998.2
2022-10-18T15:28:41.339Z,1900.7
2022-10-18T15:30:41.409Z,1719.9
2022-10-18T15:32:41.885Z,1636
2022-10-18T15:34:41.986Z,1556.2
2022-10-18T15:36:41.521Z,1556.2
2022-10-18T15:38:41.784Z,1556.2
2022-10-18T15:40:41.812Z,1719.9
2022-10-18T15:42:45.336Z,1556.2
2022-10-18T15:44:41.423Z,1480.3
2022-10-18T15:46:45.406Z,1212
2022-10-18T15:48:41.458Z,992.3
2022-10-18T15:50:45.417Z,812.4
2022-10-18T15:52:42.132Z,665.1
2022-10-18T15:54:41.621Z,601.8
2022-10-18T15:56:42.281Z,518
2022-10-18T15:58:42.122Z,468.7
2022-10-18T16:00:41.522Z,403.4
2022-10-18T16:02:42.413Z,330.3
2022-10-18T16:04:41.655Z,270.4
2022-10-18T16:06:41.546Z,221.4
2022-10-18T16:08:42.056Z,190.6
2022-10-18T16:12:41.583Z,148.4
2022-10-18T16:14:41.684Z,134.3
2022-10-18T16:16:41.608Z,127.7
2022-10-18T16:18:42.199Z,121.5
2022-10-18T16:20:41.783Z,115.6
2022-10-18T16:22:44.808Z,104.6
2022-10-18T16:26:42.229Z,73.7
2022-10-18T16:28:42.246Z,57.4
2022-10-18T16:30:42.435Z,44.7
2022-10-18T16:32:42.440Z,33.1
2022-10-18T16:34:48.408Z,23.3
2022-10-18T16:36:48.927Z,16.4
2022-10-18T16:38:42.468Z,11.6
2022-10-18T16:40:42.453Z,7.8
2022-10-18T16:42:42.630Z,5.2
2022-10-18T16:44:45.717Z,3.5
2022-10-18T16:46:49.933Z,2.2
2022-10-18T16:48:46.061Z,1.5
2022-10-18T16:50:42.534Z,1.2
2022-10-18T16:52:48.595Z,0.8
2022-10-18T16:54:42.065Z,0.5
2022-10-18T16:56:45.880Z,0.4
2022-10-18T16:58:42.320Z,0.3
2022-10-18T17:00:42.517Z,0.2
2022-10-18T17:02:42.548Z,0.1
2022-10-18T17:04:42.421Z,0
2022-10-18T17:06:45.106Z,0
2022-10-18T17:08:41.943Z,0
2022-10-18T17:10:41.934Z,0
2022-10-18T17:12:41.908Z,0
2022-10-18T17:14:45.877Z,1
2022-10-18T17:16:43.630Z,1
2022-10-18T17:18:41.896Z,1
2022-10-18T17:20:49.296Z,1
2022-10-18T17:22:42.015Z,1
2022-10-18T17:24:42.383Z,1
2022-10-18T17:26:49.199Z,1
2022-10-18T17:28:48.655Z,1
2022-10-18T17:30:48.617Z,1
2022-10-18T17:32:42.407Z,1
2022-10-18T17:34:48.664Z,1
2022-10-18T17:36:45.741Z,1
2022-10-18T17:38:42.395Z,1
2022-10-18T17:40:41.919Z,1
2022-10-18T17:42:45.629Z,1
2022-10-18T17:44:42.062Z,1
2022-10-18T17:46:41.901Z,1
2022-10-18T17:48:42.105Z,1
2022-10-18T17:50:41.941Z,1
2022-10-18T17:52:45.147Z,1
2022-10-18T17:54:46.169Z,1
2022-10-18T17:56:42.615Z,1
2022-10-18T17:58:42.351Z,1
2022-10-18T18:00:42.608Z,1
2022-10-18T18:02:43.409Z,1
2022-10-18T18:04:41.903Z,1
2022-10-18T18:06:41.899Z,1
2022-10-18T18:08:48.799Z,1
2022-10-18T18:10:41.827Z,1
2022-10-18T18:12:42.473Z,1
2022-10-18T18:14:42.042Z,1
2022-10-18T18:16:42.407Z,1
2022-10-18T18:18:45.453Z,1
2022-10-18T18:20:41.978Z,1
2022-10-18T18:22:42.625Z,1
2022-10-18T18:24:42.525Z,1
2022-10-18T18:26:42.544Z,1
2022-10-18T18:28:40.222Z,1
2022-10-18T18:30:42.500Z,1
2022-10-18T18:32:42.562Z,1
2022-10-18T18:34:48.963Z,1
2022-10-18T18:36:49.067Z,1
2022-10-18T18:38:42.563Z,1
2022-10-18T18:40:42.022Z,1
2022-10-18T18:43:01.559Z,1
2022-10-18T18:44:42.378Z,1
2022-10-18T18:46:41.925Z,1
2022-10-18T18:48:41.919Z,1
2022-10-18T18:50:41.905Z,1
2022-10-18T18:52:45.824Z,1
2022-10-18T18:54:42.430Z,1
2022-10-18T18:56:41.928Z,1
2022-10-18T18:58:42.555Z,1
2022-10-18T19:00:43.624Z,1
2022-10-18T19:02:42.462Z,1
2022-10-18T19:04:41.900Z,1
2022-10-18T19:06:42.634Z,1
2022-10-18T19:08:42.208Z,1
2022-10-18T19:10:42.391Z,1
2022-10-18T19:12:52.148Z,1
2022-10-18T19:14:42.030Z,1
2022-10-18T19:16:41.903Z,1
2022-10-18T19:18:45.594Z,1
2022-10-18T19:20:41.960Z,1
2022-10-18T19:22:41.936Z,1
2022-10-18T19:24:41.918Z,1
2022-10-18T19:26:42.584Z,1
2022-10-18T19:28:45.879Z,1
2022-10-18T19:30:42.743Z,1
2022-10-18T19:32:42.106Z,1
2022-10-18T19:34:45.858Z,1
2022-10-18T19:36:46.042Z,1
2022-10-18T19:38:42.151Z,1
2022-10-18T19:40:48.293Z,1
2022-10-18T19:42:42.719Z,1
2022-10-18T19:44:42.632Z,1
2022-10-18T19:46:47.003Z,1
2022-10-18T19:48:42.679Z,1
2022-10-18T19:50:46.189Z,1
2022-10-18T19:52:41.945Z,1
2022-10-18T19:54:42.391Z,1
2022-10-18T19:56:42.159Z,1
2022-10-18T19:58:46.043Z,1
2022-10-18T20:00:45.174Z,1
2022-10-18T20:02:42.726Z,1
2022-10-18T20:04:41.920Z,1
2022-10-18T20:10:42.497Z,1
2022-10-18T20:12:41.989Z,1
2022-10-18T20:14:42.552Z,1
2022-10-18T20:16:42.086Z,1
2022-10-18T20:18:45.594Z,1
2022-10-18T20:20:44.550Z,1
2022-10-18T20:22:42.796Z,1
2022-10-18T20:24:45.962Z,1
2022-10-18T20:26:42.884Z,1
2022-10-18T20:28:42.435Z,1
2022-10-18T20:30:42.508Z,1
2022-10-18T20:32:42.010Z,1
2022-10-18T20:34:42.559Z,1
2022-10-18T20:36:42.446Z,1
2022-10-18T20:38:42.027Z,1
2022-10-18T20:40:42.266Z,1
2022-10-18T20:42:42.501Z,1
2022-10-18T20:44:42.603Z,1
2022-10-18T20:46:41.952Z,1
2022-10-18T20:48:41.881Z,1
2022-10-18T20:50:42.168Z,1
2022-10-18T20:52:49.117Z,1
2022-10-18T20:54:49.183Z,1
2022-10-18T20:56:42.754Z,1
2022-10-18T20:58:42.106Z,1
2022-10-18T21:00:48.954Z,1
2022-10-18T21:02:46.192Z,1
2022-10-18T21:04:42.458Z,1
2022-10-18T21:06:41.965Z,1
2022-10-18T21:08:41.847Z,1
2022-10-18T21:10:41.962Z,1
2022-10-18T21:12:41.997Z,1
2022-10-18T21:14:45.881Z,1
2022-10-18T21:16:40.170Z,1
2022-10-18T21:18:41.845Z,1
2022-10-18T21:22:42.497Z,1
2022-10-18T21:24:41.949Z,1
2022-10-18T21:26:42.546Z,1
2022-10-18T21:28:41.998Z,1
2022-10-18T21:30:42.083Z,1
2022-10-18T21:32:49.291Z,1
2022-10-18T21:34:45.501Z,1
2022-10-18T21:36:42.414Z,1
2022-10-18T21:38:45.106Z,1
2022-10-18T21:40:41.985Z,1
2022-10-18T21:42:42.469Z,1
2022-10-18T21:44:42.107Z,1
2022-10-18T21:46:46.120Z,1
2022-10-18T21:48:41.963Z,1
2022-10-18T21:50:41.988Z,1
2022-10-18T21:52:41.949Z,1
2022-10-18T21:54:42.433Z,1
2022-10-18T21:56:41.953Z,1
2022-10-18T21:58:42.581Z,1
2022-10-18T22:00:42.192Z,1
2022-10-18T22:02:41.982Z,1
2022-10-18T22:04:41.963Z,1
2022-10-18T22:06:48.928Z,1
2022-10-18T22:08:41.967Z,1
2022-10-18T22:10:44.642Z,1
2022-10-18T22:12:41.968Z,1
2022-10-18T22:14:42.103Z,1
2022-10-18T22:16:41.926Z,1
2022-10-18T22:18:45.698Z,1
2022-10-18T22:20:42.436Z,1
2022-10-18T22:22:41.943Z,1
2022-10-18T22:24:45.535Z,1
2022-10-18T22:26:45.875Z,1
2022-10-18T22:28:42.058Z,1
2022-10-18T22:30:42.793Z,1
2022-10-18T22:32:42.734Z,1
2022-10-18T22:34:41.922Z,1
2022-10-18T22:36:42.016Z,1
2022-10-18T22:38:42.492Z,1
2022-10-18T22:40:45.089Z,1
2022-10-18T22:42:45.679Z,1
2022-10-18T22:44:46.921Z,1
2022-10-18T22:46:45.795Z,1
2022-10-18T22:50:41.919Z,1
2022-10-18T22:52:42.465Z,1
2022-10-18T22:54:42.027Z,1
2022-10-18T22:56:42.123Z,1
2022-10-18T22:58:45.330Z,1
2022-10-18T23:00:41.916Z,1
2022-10-18T23:02:42.631Z,1
2022-10-18T23:04:45.837Z,1
2022-10-18T23:06:42.194Z,1
2022-10-18T23:10:41.883Z,1
2022-10-18T23:12:42.400Z,1
2022-10-18T23:14:42.106Z,1
2022-10-18T23:16:45.965Z,1
2022-10-18T23:20:45.936Z,1
2022-10-18T23:22:49.188Z,1
2022-10-18T23:24:41.899Z,1
2022-10-18T23:26:42.363Z,1
2022-10-18T23:28:44.340Z,1
2022-10-18T23:30:45.909Z,1
2022-10-18T23:34:41.863Z,1
2022-10-18T23:38:42.072Z,1
2022-10-18T23:40:42.468Z,1
2022-10-18T23:42:41.949Z,1
2022-10-18T23:44:42.503Z,1
2022-10-18T23:48:42.729Z,1
2022-10-18T23:50:42.535Z,1
2022-10-18T23:52:41.976Z,1
2022-10-18T23:54:46.083Z,1
2022-10-18T23:56:42.035Z,1
2022-10-18T23:58:41.959Z,1
